Time;durP1;ratioP1;P1;durP2;ratioP2;P2;SDS_P1;SDS_P2;PMS_P1;PMS_P2;Temp;Humidity;BMP_temperature;BMP_pressure;BME280_temperature;BME280_humidity;BME280_pressure;Samples;Min_cycle;Max_cycle;Signal;HPM_P1;HPM_P2
2022/05/21 00:00:33;;;;;;;5.60;4.60;;;;;;99758.14;;;;108003;1271;28885;-30
2022/05/21 00:03:05;;;;;;;6.00;5.10;;;;;;99759.52;;;;107838;1271;28712;-30
2022/05/21 00:05:33;;;;;;;6.00;5.00;;;;;;99754.64;;;;108028;1271;28593;-30
2022/05/21 00:08:00;;;;;;;6.40;5.00;;;;;;99748.84;;;;107991;1271;27634;-30
2022/05/21 00:10:30;;;;;;;8.40;5.30;;;;;;99745.20;;;;107984;1271;27771;-30
2022/05/21 00:12:58;;;;;;;5.70;4.50;;;;;;99743.28;;;;108005;1271;28675;-30
2022/05/21 00:15:28;;;;;;;5.80;5.20;;;;;;99738.64;;;;107986;1271;28614;-30
2022/05/21 00:17:55;;;;;;;5.70;5.10;;;;;;99745.34;;;;107989;1271;28634;-30
2022/05/21 00:23:18;;;;;;;6.30;5.10;;;;;;99737.14;;;;107810;1273;27730;-30
2022/05/21 00:25:47;;;;;;;6.00;4.90;;;;;;99729.23;;;;107964;1271;28813;-30
2022/05/21 00:28:15;;;;;;;6.30;5.30;;;;;;99723.62;;;;108006;1271;30486;-30
2022/05/21 00:30:42;;;;;;;6.40;5.00;;;;;;99715.69;;;;108011;1271;28688;-30
2022/05/21 00:33:09;;;;;;;6.50;5.20;;;;;;99712.05;;;;108004;1271;28426;-31
2022/05/21 00:35:35;;;;;;;6.50;5.00;;;;;;99700.39;;;;107796;1271;28680;-30
2022/05/21 00:38:02;;;;;;;6.20;5.20;;;;;;99692.98;;;;107809;1271;28174;-30
2022/05/21 00:40:29;;;;;;;6.70;5.50;;;;;;99690.83;;;;107977;1271;28611;-31
2022/05/21 00:42:57;;;;;;;6.40;5.30;;;;;;99697.45;;;;107983;1270;28780;-31
2022/05/21 00:45:24;;;;;;;6.70;5.40;;;;;;99724.91;;;;107975;1271;28605;-30
2022/05/21 00:47:51;;;;;;;6.70;6.00;;;;;;99794.70;;;;108011;1271;29246;-30
2022/05/21 00:50:23;;;;;;;7.10;6.00;;;;;;99853.20;;;;107821;1271;30922;-31
2022/05/21 00:52:50;;;;;;;6.70;6.00;;;;;;99854.35;;;;107977;1271;30990;-30
2022/05/21 00:55:29;;;;;;;7.10;5.70;;;;;;99856.64;;;;107990;1271;26020;-31
2022/05/21 01:00:46;;;;;;;6.80;6.10;;;;;;99845.45;;;;107876;1271;27899;-30
2022/05/21 01:03:15;;;;;;;6.10;5.30;;;;;;99824.94;;;;107965;1271;28413;-31
2022/05/21 01:05:45;;;;;;;7.30;5.70;;;;;;99806.23;;;;107993;1271;30769;-31
2022/05/21 01:08:12;;;;;;;5.70;4.80;;;;;;99784.19;;;;107978;1271;27459;-30
2022/05/21 01:10:42;;;;;;;6.50;5.40;;;;;;99765.01;;;;107985;1269;28642;-31
2022/05/21 01:13:14;;;;;;;5.90;5.30;;;;;;99730.55;;;;107841;1271;28616;-30
2022/05/21 01:15:45;;;;;;;6.10;5.30;;;;;;99719.87;;;;107841;1271;28559;-31
2022/05/21 01:18:12;;;;;;;5.70;5.10;;;;;;99712.80;;;;107970;1270;28681;-31
2022/05/21 01:20:44;;;;;;;7.80;5.00;;;;;;99685.98;;;;107965;1271;27728;-31
2022/05/21 01:23:12;;;;;;;6.50;5.90;;;;;;99665.88;;;;107976;1271;28629;-31
2022/05/21 01:25:40;;;;;;;6.60;5.40;;;;;;99663.48;;;;108009;1271;27614;-31
2022/05/21 01:28:11;;;;;;;6.60;5.80;;;;;;99679.48;;;;108020;1271;29265;-31
2022/05/21 01:30:44;;;;;;;6.20;5.50;;;;;;99678.60;;;;107987;1271;28636;-31
2022/05/21 01:33:14;;;;;;;7.90;5.50;;;;;;99665.67;;;;108014;1271;28702;-31
2022/05/21 01:35:42;;;;;;;6.70;5.50;;;;;;99661.63;;;;107923;1271;27375;-31
2022/05/21 01:38:12;;;;;;;5.90;5.00;;;;;;99656.12;;;;107991;1271;27751;-31
2022/05/21 01:40:38;;;;;;;6.50;5.40;;;;;;99648.96;;;;108039;1271;29138;-31
2022/05/21 01:45:52;;;;;;;6.40;5.30;;;;;;99648.96;;;;107993;1271;28668;-31
2022/05/21 01:48:22;;;;;;;6.50;5.60;;;;;;99641.08;;;;107981;1271;27444;-31
2022/05/21 01:50:51;;;;;;;6.30;5.30;;;;;;99632.60;;;;107976;1271;28594;-31
2022/05/21 01:53:19;;;;;;;7.10;5.10;;;;;;99613.58;;;;108008;1271;30967;-31
2022/05/21 01:55:48;;;;;;;5.80;5.10;;;;;;99603.80;;;;107990;1271;27342;-30
2022/05/21 01:58:16;;;;;;;6.70;5.50;;;;;;99596.09;;;;108011;1271;28580;-30
2022/05/21 02:00:43;;;;;;;5.90;5.30;;;;;;99591.95;;;;107994;1271;26044;-30
2022/05/21 02:03:12;;;;;;;7.60;5.20;;;;;;99585.13;;;;107985;1271;30686;-31
2022/05/21 02:05:40;;;;;;;6.50;5.20;;;;;;99571.86;;;;108010;1271;28677;-31
2022/05/21 02:08:07;;;;;;;6.30;5.10;;;;;;99559.90;;;;107979;1271;28738;-31
2022/05/21 02:10:34;;;;;;;6.50;5.50;;;;;;99547.80;;;;108006;1271;28499;-31
2022/05/21 02:13:02;;;;;;;6.20;5.40;;;;;;99540.59;;;;107998;1271;28711;-31
2022/05/21 02:15:30;;;;;;;6.00;5.40;;;;;;99542.98;;;;107971;1271;27800;-31
2022/05/21 02:17:57;;;;;;;6.10;5.10;;;;;;99536.83;;;;107994;1271;29154;-31
2022/05/21 02:20:24;;;;;;;5.90;5.30;;;;;;99533.34;;;;108001;1271;29861;-31
2022/05/21 02:22:51;;;;;;;6.10;5.20;;;;;;99523.52;;;;107968;1271;28592;-31
2022/05/21 02:25:17;;;;;;;6.20;5.40;;;;;;99512.85;;;;107989;1271;29888;-31
2022/05/21 02:27:44;;;;;;;6.20;5.10;;;;;;99508.27;;;;108011;1271;26420;-31
2022/05/21 02:30:12;;;;;;;7.20;5.60;;;;;;99502.16;;;;108012;1271;29303;-31
2022/05/21 02:32:38;;;;;;;5.60;5.00;;;;;;99499.06;;;;108006;1271;28667;-31
2022/05/21 02:35:06;;;;;;;5.90;5.30;;;;;;99500.98;;;;107947;1271;27630;-31
2022/05/21 02:40:18;;;;;;;5.60;4.90;;;;;;99501.48;;;;107798;1274;28023;-31
2022/05/21 02:42:48;;;;;;;6.00;5.10;;;;;;99510.09;;;;107997;1271;29331;-31
2022/05/21 02:45:19;;;;;;;5.90;5.10;;;;;;99520.05;;;;107977;1271;28632;-31
2022/05/21 02:47:47;;;;;;;6.60;5.70;;;;;;99519.34;;;;108021;1271;27586;-31
2022/05/21 02:50:19;;;;;;;6.10;5.10;;;;;;99529.55;;;;108016;1271;27480;-31
2022/05/21 02:52:45;;;;;;;6.00;5.40;;;;;;99528.98;;;;107855;1270;28684;-31
2022/05/21 02:55:13;;;;;;;6.00;5.40;;;;;;99530.82;;;;107984;1271;27772;-31
2022/05/21 02:57:41;;;;;;;5.90;5.00;;;;;;99526.02;;;;108024;1271;26098;-31
2022/05/21 03:00:18;;;;;;;5.90;5.30;;;;;;99531.53;;;;108015;1271;28680;-31
2022/05/21 03:02:45;;;;;;;5.70;5.10;;;;;;99533.20;;;;108006;1271;28576;-31
2022/05/21 03:05:13;;;;;;;6.10;5.50;;;;;;99535.71;;;;107999;1271;26021;-31
2022/05/21 03:07:42;;;;;;;5.90;5.00;;;;;;99533.13;;;;108019;1271;29406;-31
2022/05/21 03:10:23;;;;;;;6.00;5.20;;;;;;99527.59;;;;108018;1271;28620;-30
2022/05/21 03:12:54;;;;;;;6.60;5.10;;;;;;99525.09;;;;107854;1271;28568;-30
2022/05/21 03:15:27;;;;;;;7.30;5.40;;;;;;99522.15;;;;108044;1271;28157;-30
2022/05/21 03:17:54;;;;;;;6.30;5.30;;;;;;99507.23;;;;107861;1271;27701;-30
2022/05/21 03:20:21;;;;;;;6.00;5.40;;;;;;99506.62;;;;107859;1271;30612;-30
2022/05/21 03:22:49;;;;;;;6.20;5.50;;;;;;99504.61;;;;108002;1271;27483;-31
2022/05/21 03:25:16;;;;;;;6.90;5.50;;;;;;99498.84;;;;108013;1271;28476;-31
2022/05/21 03:27:43;;;;;;;6.30;5.60;;;;;;99496.55;;;;107855;1271;28006;-31
2022/05/21 03:30:14;;;;;;;6.90;5.50;;;;;;99498.04;;;;107996;1271;28514;-31
2022/05/21 03:32:42;;;;;;;5.70;5.00;;;;;;99499.23;;;;108024;1270;28527;-31
2022/05/21 03:35:12;;;;;;;7.10;5.80;;;;;;99501.95;;;;107880;1270;27541;-31
2022/05/21 03:37:39;;;;;;;6.40;5.80;;;;;;99492.25;;;;107994;1271;28735;-31
2022/05/21 03:40:09;;;;;;;6.30;5.70;;;;;;99486.89;;;;108028;1271;30641;-31
2022/05/21 03:42:37;;;;;;;6.20;5.60;;;;;;99482.30;;;;108021;1272;27509;-31
2022/05/21 03:45:06;;;;;;;6.00;5.20;;;;;;99485.95;;;;107988;1271;28173;-31
2022/05/21 03:47:33;;;;;;;6.10;5.50;;;;;;99502.61;;;;108025;1271;27336;-31
2022/05/21 03:50:00;;;;;;;6.00;5.30;;;;;;99516.73;;;;107990;1271;27524;-31
2022/05/21 03:52:27;;;;;;;6.70;6.00;;;;;;99522.80;;;;107998;1271;28717;-31
2022/05/21 03:54:54;;;;;;;7.00;5.80;;;;;;99519.98;;;;107990;1271;30416;-30
2022/05/21 03:57:20;;;;;;;6.90;5.80;;;;;;99518.18;;;;107971;1271;28690;-31
2022/05/21 03:59:47;;;;;;;6.50;5.80;;;;;;99519.21;;;;107996;1271;28836;-31
2022/05/21 04:02:14;;;;;;;6.80;6.10;;;;;;99525.14;;;;108006;1271;27503;-31
2022/05/21 04:04:41;;;;;;;6.90;5.90;;;;;;99522.33;;;;107990;1271;27771;-31
2022/05/21 04:07:07;;;;;;;6.90;6.20;;;;;;99495.39;;;;108012;1271;28665;-31
2022/05/21 04:09:34;;;;;;;6.80;6.10;;;;;;99486.87;;;;107956;1271;28764;-31
2022/05/21 04:12:03;;;;;;;7.10;5.70;;;;;;99503.77;;;;108000;1271;30866;-31
2022/05/21 04:14:30;;;;;;;6.60;5.70;;;;;;99506.73;;;;108045;1271;28645;-31
2022/05/21 04:17:01;;;;;;;6.80;5.90;;;;;;99498.93;;;;108004;1273;26232;-31
2022/05/21 04:19:29;;;;;;;6.60;5.90;;;;;;99497.90;;;;108023;1271;27538;-31
2022/05/21 04:21:56;;;;;;;9.00;6.50;;;;;;99502.98;;;;108020;1271;28100;-31
2022/05/21 04:24:23;;;;;;;6.60;5.90;;;;;;99496.95;;;;107918;1271;27151;-31
2022/05/21 04:26:50;;;;;;;6.80;5.80;;;;;;99499.34;;;;108008;1271;27597;-31
2022/05/21 04:29:18;;;;;;;7.60;6.70;;;;;;99497.09;;;;107854;1271;28846;-31
2022/05/21 04:31:44;;;;;;;7.10;6.30;;;;;;99500.79;;;;107996;1271;28604;-31
2022/05/21 04:34:11;;;;;;;7.00;6.00;;;;;;99512.54;;;;108005;1271;28686;-31
2022/05/21 04:36:41;;;;;;;7.20;5.70;;;;;;99508.37;;;;108013;1271;28585;-31
2022/05/21 04:39:08;;;;;;;6.90;6.20;;;;;;99509.91;;;;107999;1271;28553;-31
2022/05/21 04:41:34;;;;;;;6.70;6.00;;;;;;99510.58;;;;107978;1271;30781;-31
2022/05/21 04:44:02;;;;;;;7.00;6.30;;;;;;99514.10;;;;107986;1271;27645;-31
2022/05/21 04:46:32;;;;;;;6.50;5.80;;;;;;99512.13;;;;108017;1271;28535;-31
2022/05/21 04:48:58;;;;;;;7.50;6.50;;;;;;99509.62;;;;108002;1271;28635;-31
2022/05/21 04:51:25;;;;;;;6.80;6.00;;;;;;99507.33;;;;107978;1271;26195;-31
2022/05/21 04:53:52;;;;;;;6.70;6.00;;;;;;99504.80;;;;107827;1271;27335;-31
2022/05/21 04:56:19;;;;;;;7.10;6.10;;;;;;99506.04;;;;108007;1271;26373;-31
2022/05/21 04:58:46;;;;;;;7.40;6.40;;;;;;99501.41;;;;107962;1271;27838;-31
2022/05/21 05:01:12;;;;;;;6.90;6.20;;;;;;99495.27;;;;107988;1271;28804;-31
2022/05/21 05:03:39;;;;;;;6.30;5.70;;;;;;99496.43;;;;107994;1271;28529;-30
2022/05/21 05:06:06;;;;;;;7.40;6.00;;;;;;99504.18;;;;107965;1270;28633;-30
2022/05/21 05:08:33;;;;;;;7.50;6.60;;;;;;99501.68;;;;107848;1271;30709;-30
2022/05/21 05:10:59;;;;;;;7.10;5.80;;;;;;99501.27;;;;107999;1271;28358;-30
2022/05/21 05:13:26;;;;;;;7.30;6.30;;;;;;99495.16;;;;107989;1271;27628;-30
2022/05/21 05:15:52;;;;;;;7.00;6.30;;;;;;99498.86;;;;107990;1271;27873;-31
2022/05/21 05:18:22;;;;;;;8.10;5.90;;;;;;99501.91;;;;107980;1271;30955;-31
2022/05/21 05:20:49;;;;;;;8.40;6.40;;;;;;99503.19;;;;108004;1271;28536;-31
2022/05/21 05:23:17;;;;;;;7.00;6.30;;;;;;99506.77;;;;107991;1271;28358;-31
2022/05/21 05:25:43;;;;;;;6.80;6.10;;;;;;99507.21;;;;107652;1271;424632;-31
2022/05/21 05:28:23;;;;;;;7.10;6.40;;;;;;99507.70;;;;107983;1271;28619;-31
2022/05/21 05:30:49;;;;;;;7.60;6.90;;;;;;99506.58;;;;107981;1271;28675;-31
2022/05/21 05:33:16;;;;;;;7.40;6.50;;;;;;99499.38;;;;107971;1271;29194;-31
2022/05/21 05:35:43;;;;;;;7.40;6.40;;;;;;99501.66;;;;107970;1271;28659;-31
2022/05/21 05:38:12;;;;;;;8.10;7.30;;;;;;99501.31;;;;107962;1271;28796;-31
2022/05/21 05:40:42;;;;;;;8.30;7.30;;;;;;99501.03;;;;107989;1271;28594;-31
2022/05/21 05:43:09;;;;;;;7.50;6.60;;;;;;99505.02;;;;108018;1271;28622;-31
2022/05/21 05:45:36;;;;;;;7.40;6.60;;;;;;99503.92;;;;107968;1271;28694;-31
2022/05/21 05:48:03;;;;;;;7.60;6.80;;;;;;99498.14;;;;107965;1271;28789;-30
2022/05/21 05:50:30;;;;;;;8.00;6.80;;;;;;99499.23;;;;107959;1271;27352;-30
2022/05/21 05:53:03;;;;;;;7.60;6.50;;;;;;99499.95;;;;107932;1274;28662;-30
2022/05/21 05:55:31;;;;;;;7.00;6.30;;;;;;99497.23;;;;107980;1271;30839;-30
2022/05/21 05:57:59;;;;;;;6.90;6.20;;;;;;99493.58;;;;107970;1271;26082;-30
2022/05/21 06:00:26;;;;;;;7.80;7.10;;;;;;99493.86;;;;107978;1271;28361;-30
2022/05/21 06:02:59;;;;;;;7.50;6.60;;;;;;99492.13;;;;107992;1271;27740;-31
2022/05/21 06:05:31;;;;;;;7.10;6.00;;;;;;99495.73;;;;107826;1271;28059;-31
2022/05/21 06:08:02;;;;;;;7.20;6.50;;;;;;99495.61;;;;107960;1271;30808;-30
2022/05/21 06:10:35;;;;;;;6.60;5.90;;;;;;99495.67;;;;107926;1271;29878;-30
2022/05/21 06:13:02;;;;;;;6.90;6.20;;;;;;99501.17;;;;107973;1271;28369;-30
2022/05/21 06:15:30;;;;;;;6.80;6.10;;;;;;99500.64;;;;107931;1271;28459;-30
2022/05/21 06:17:56;;;;;;;6.80;6.10;;;;;;99498.25;;;;107936;1271;28591;-30
2022/05/21 06:20:27;;;;;;;6.60;5.90;;;;;;99498.88;;;;107963;1271;27503;-30
2022/05/21 06:22:53;;;;;;;6.50;5.90;;;;;;99499.08;;;;107969;1271;28633;-30
2022/05/21 06:25:25;;;;;;;7.20;6.20;;;;;;99499.91;;;;107972;1271;28597;-30
2022/05/21 06:27:53;;;;;;;6.40;5.80;;;;;;99501.27;;;;107981;1271;28664;-30
2022/05/21 06:30:23;;;;;;;6.80;5.90;;;;;;99506.37;;;;107980;1271;28590;-30
2022/05/21 06:32:49;;;;;;;6.10;5.50;;;;;;99499.91;;;;107970;1271;30717;-30
2022/05/21 06:35:18;;;;;;;6.20;5.60;;;;;;99513.20;;;;107975;1271;30085;-31
2022/05/21 06:37:45;;;;;;;8.00;5.00;;;;;;99518.41;;;;107883;1271;27934;-30
2022/05/21 06:40:14;;;;;;;6.70;5.50;;;;;;99511.03;;;;107948;1271;28678;-30
2022/05/21 06:42:41;;;;;;;6.20;5.30;;;;;;99532.83;;;;107964;1272;27476;-30
2022/05/21 06:45:09;;;;;;;6.20;5.30;;;;;;99526.61;;;;107848;1271;28616;-30
2022/05/21 06:47:36;;;;;;;6.60;5.10;;;;;;99531.41;;;;107935;1271;27729;-30
2022/05/21 06:50:06;;;;;;;5.50;4.80;;;;;;99540.22;;;;107956;1271;28390;-30
2022/05/21 06:52:33;;;;;;;5.80;4.90;;;;;;99548.72;;;;108006;1271;28288;-29
2022/05/21 06:55:00;;;;;;;5.40;4.40;;;;;;99552.83;;;;107971;1271;30477;-29
2022/05/21 06:57:28;;;;;;;5.20;4.10;;;;;;99558.38;;;;107963;1271;28208;-29
2022/05/21 06:59:56;;;;;;;4.80;4.10;;;;;;99566.52;;;;107969;1271;27963;-30
2022/05/21 07:02:24;;;;;;;5.30;4.10;;;;;;99571.54;;;;107896;1271;28128;-30
2022/05/21 07:07:43;;;;;;;7.00;4.10;;;;;;99581.71;;;;107966;1271;27717;-30
2022/05/21 07:10:24;;;;;;;5.40;3.70;;;;;;99582.45;;;;107947;1271;28463;-30
2022/05/21 07:12:52;;;;;;;4.70;4.10;;;;;;99585.73;;;;107975;1271;26095;-29
2022/05/21 07:15:19;;;;;;;4.40;3.40;;;;;;99591.27;;;;107954;1271;28684;-29
2022/05/21 07:17:46;;;;;;;5.40;3.70;;;;;;99593.30;;;;107984;1271;28654;-31
2022/05/21 07:20:21;;;;;;;4.70;3.10;;;;;;99598.83;;;;107960;1271;27329;-32
2022/05/21 07:22:49;;;;;;;5.70;3.10;;;;;;99606.66;;;;107985;1271;27332;-32
2022/05/21 07:25:21;;;;;;;4.90;2.90;;;;;;99619.38;;;;107974;1271;28506;-33
2022/05/21 07:27:49;;;;;;;4.90;3.20;;;;;;99615.95;;;;108015;1271;30909;-32
2022/05/21 07:30:16;;;;;;;5.10;2.80;;;;;;99623.96;;;;107965;1271;28677;-31
2022/05/21 07:32:44;;;;;;;4.10;2.90;;;;;;99641.05;;;;107979;1271;26207;-30
2022/05/21 07:35:15;;;;;;;5.40;3.30;;;;;;99655.06;;;;107861;1271;28543;-30
2022/05/21 07:37:41;;;;;;;8.30;4.20;;;;;;99635.55;;;;108005;1271;28030;-29
2022/05/21 07:40:10;;;;;;;7.10;4.00;;;;;;99650.05;;;;107858;1271;28040;-29
2022/05/21 07:42:37;;;;;;;7.40;3.90;;;;;;99650.95;;;;107997;1271;28603;-29
2022/05/21 07:45:07;;;;;;;6.30;3.00;;;;;;99653.37;;;;107975;1271;28633;-29
2022/05/21 07:47:33;;;;;;;5.30;3.40;;;;;;99662.38;;;;108007;1271;28601;-29
2022/05/21 07:50:00;;;;;;;5.30;2.90;;;;;;99665.52;;;;107979;1271;28275;-29
2022/05/21 07:52:29;;;;;;;6.30;2.80;;;;;;99674.80;;;;107795;1274;28826;-29
2022/05/21 07:54:56;;;;;;;5.50;2.80;;;;;;99674.96;;;;107968;1271;27970;-29
2022/05/21 07:57:23;;;;;;;4.50;2.60;;;;;;99673.05;;;;107864;1271;27605;-31
2022/05/21 07:59:50;;;;;;;4.90;2.60;;;;;;99677.66;;;;107971;1271;28594;-32
2022/05/21 08:02:19;;;;;;;5.30;2.40;;;;;;99685.16;;;;107967;1271;26115;-31
2022/05/21 08:04:47;;;;;;;5.60;2.50;;;;;;99683.60;;;;108011;1271;28814;-32
2022/05/21 08:07:15;;;;;;;4.40;2.00;;;;;;99678.73;;;;108014;1271;28663;-32
2022/05/21 08:09:42;;;;;;;5.10;2.00;;;;;;99687.78;;;;107964;1271;28651;-32
2022/05/21 08:12:14;;;;;;;4.20;2.30;;;;;;99698.65;;;;107945;1270;28824;-31
2022/05/21 08:14:42;;;;;;;3.40;2.00;;;;;;99697.03;;;;108001;1271;30804;-31
2022/05/21 08:17:09;;;;;;;3.70;1.80;;;;;;99706.16;;;;107882;1271;30807;-31
2022/05/21 08:19:36;;;;;;;5.30;1.90;;;;;;99715.68;;;;107995;1271;28660;-33
2022/05/21 08:27:34;;;;;;;6.20;1.50;;;;;;99716.15;;;;107966;1271;27896;-32
2022/05/21 08:30:01;;;;;;;3.60;1.50;;;;;;99729.96;;;;107977;1271;28630;-31
2022/05/21 08:32:27;;;;;;;3.70;1.30;;;;;;99725.52;;;;107998;1271;28633;-31
2022/05/21 08:34:54;;;;;;;3.90;1.40;;;;;;99736.46;;;;107967;1271;28572;-31
2022/05/21 08:37:21;;;;;;;3.60;1.40;;;;;;99744.10;;;;107967;1271;28634;-31
2022/05/21 08:39:48;;;;;;;3.60;1.30;;;;;;99731.10;;;;107806;1271;26070;-31
2022/05/21 08:42:28;;;;;;;4.20;1.60;;;;;;99748.03;;;;107994;1271;29407;-30
2022/05/21 08:45:19;;;;;;;3.00;1.20;;;;;;99751.70;;;;107957;1271;28699;-32
2022/05/21 08:48:08;;;;;;;2.40;1.20;;;;;;99761.36;;;;107851;1271;28599;-32
2022/05/21 08:50:39;;;;;;;3.30;1.10;;;;;;99759.90;;;;107942;1271;30731;-32
2022/05/21 08:53:13;;;;;;;3.50;1.20;;;;;;99762.11;;;;107847;1271;28819;-32
2022/05/21 08:55:50;;;;;;;2.30;1.00;;;;;;99759.34;;;;107985;1270;30082;-33
2022/05/21 08:58:43;;;;;;;2.70;1.00;;;;;;99757.91;;;;107855;1271;27473;-33
2022/05/21 09:01:10;;;;;;;2.40;0.90;;;;;;99753.21;;;;107974;1271;28653;-33
2022/05/21 09:03:37;;;;;;;2.40;0.90;;;;;;99763.48;;;;107886;1271;28643;-32
2022/05/21 09:06:33;;;;;;;3.00;0.90;;;;;;99753.16;;;;107747;1271;26245;-31
2022/05/21 09:09:30;;;;;;;3.00;0.90;;;;;;99768.88;;;;107916;1271;29600;-31
2022/05/21 09:12:11;;;;;;;2.60;0.80;;;;;;99761.94;;;;107681;1273;27679;-32
2022/05/21 09:14:42;;;;;;;1.40;0.80;;;;;;99765.02;;;;107859;1271;28727;-32
2022/05/21 09:17:16;;;;;;;2.60;0.90;;;;;;99769.05;;;;107804;1271;26100;-29
2022/05/21 09:19:57;;;;;;;3.10;0.90;;;;;;99765.48;;;;107870;1271;28688;-30
2022/05/21 09:22:24;;;;;;;1.50;0.80;;;;;;99760.06;;;;107808;1271;32160;-30
2022/05/21 09:24:54;;;;;;;4.90;0.90;;;;;;99774.61;;;;107932;1271;28855;-30
2022/05/21 09:27:38;;;;;;;2.50;0.70;;;;;;99784.16;;;;107797;1271;27351;-30
2022/05/21 09:30:33;;;;;;;3.10;0.80;;;;;;99774.59;;;;107876;1271;28699;-30
2022/05/21 09:33:21;;;;;;;2.20;0.80;;;;;;99773.55;;;;107817;1271;27488;-30
2022/05/21 09:35:57;;;;;;;2.30;0.80;;;;;;99771.70;;;;107854;1271;28686;-30
2022/05/21 09:38:33;;;;;;;1.60;0.70;;;;;;99772.28;;;;107865;1271;28729;-31
2022/05/21 09:41:20;;;;;;;3.80;0.80;;;;;;99768.59;;;;107881;1271;30817;-28
2022/05/21 09:46:45;;;;;;;1.70;0.80;;;;;;99771.25;;;;107832;1271;28651;-29
2022/05/21 09:49:25;;;;;;;2.80;0.80;;;;;;99779.86;;;;107935;1271;28311;-30
2022/05/21 09:52:08;;;;;;;2.50;0.80;;;;;;99778.30;;;;107826;1271;29286;-30
2022/05/21 09:54:44;;;;;;;2.20;0.70;;;;;;99783.65;;;;107822;1271;30826;-30
2022/05/21 09:57:27;;;;;;;4.10;1.10;;;;;;99787.60;;;;107902;1271;27663;-31
2022/05/21 10:00:30;;;;;;;4.30;1.00;;;;;;99792.73;;;;107868;1271;27913;-29
2022/05/21 10:03:01;;;;;;;3.10;1.00;;;;;;99796.80;;;;107832;1271;28595;-30
2022/05/21 10:05:40;;;;;;;2.10;0.90;;;;;;99795.09;;;;107926;1271;26906;-30
2022/05/21 10:11:23;;;;;;;6.00;1.20;;;;;;99805.70;;;;107826;1271;28645;-30
2022/05/21 10:13:55;;;;;;;5.50;1.30;;;;;;99804.86;;;;107994;1271;28770;-30
2022/05/21 10:16:45;;;;;;;2.30;1.10;;;;;;99807.81;;;;108231;1271;29309;-30
2022/05/21 10:19:53;;;;;;;3.60;0.90;;;;;;99825.76;;;;107781;1271;28116;-31
2022/05/21 10:22:50;;;;;;;3.90;1.10;;;;;;99834.93;;;;107818;1271;28649;-31
2022/05/21 10:25:21;;;;;;;1.80;0.90;;;;;;99838.34;;;;107951;1271;28605;-31
2022/05/21 10:28:05;;;;;;;2.80;1.10;;;;;;99845.27;;;;107994;1271;28872;-31
2022/05/21 10:30:43;;;;;;;2.50;1.20;;;;;;99841.80;;;;107972;1271;30763;-31
2022/05/21 10:33:40;;;;;;;3.30;1.10;;;;;;99844.95;;;;108022;1271;27502;-31
2022/05/21 10:36:21;;;;;;;3.30;1.40;;;;;;99841.55;;;;107985;1271;30797;-31
2022/05/21 10:39:17;;;;;;;2.40;1.00;;;;;;99857.85;;;;107994;1270;28601;-31
2022/05/21 10:42:16;;;;;;;4.10;1.10;;;;;;99862.23;;;;108021;1271;28614;-31
2022/05/21 10:45:30;;;;;;;2.70;1.10;;;;;;99867.41;;;;108017;1271;27761;-31
2022/05/21 10:48:25;;;;;;;3.00;0.90;;;;;;99880.90;;;;107815;1272;27890;-31
2022/05/21 10:50:55;;;;;;;3.80;1.00;;;;;;99880.05;;;;107991;1271;28604;-30
2022/05/21 10:53:45;;;;;;;2.30;0.90;;;;;;99881.42;;;;108010;1270;28771;-30
2022/05/21 10:56:44;;;;;;;2.30;0.90;;;;;;99879.45;;;;107996;1270;26431;-31
2022/05/21 10:59:59;;;;;;;2.10;1.00;;;;;;99883.41;;;;108004;1271;28732;-31
2022/05/21 11:02:57;;;;;;;2.20;0.80;;;;;;99873.02;;;;107894;1271;30737;-31
2022/05/21 11:05:55;;;;;;;1.80;1.00;;;;;;99884.88;;;;107970;1271;28671;-31
2022/05/21 11:08:51;;;;;;;3.80;1.00;;;;;;99870.06;;;;107981;1271;28620;-31
2022/05/21 11:11:33;;;;;;;2.30;0.90;;;;;;99895.20;;;;107880;1271;27599;-30
2022/05/21 11:14:24;;;;;;;2.80;0.80;;;;;;99875.04;;;;108000;1271;28797;-32
2022/05/21 11:17:17;;;;;;;4.40;1.20;;;;;;99879.52;;;;108012;1271;28703;-32
2022/05/21 11:20:17;;;;;;;3.00;0.90;;;;;;99890.42;;;;108009;1271;30795;-31
2022/05/21 11:22:56;;;;;;;2.00;1.00;;;;;;99886.59;;;;107834;1271;28665;-29
2022/05/21 11:25:33;;;;;;;2.10;0.80;;;;;;99890.13;;;;107893;1271;27421;-30
2022/05/21 11:28:09;;;;;;;4.00;1.00;;;;;;99898.95;;;;107930;1271;28747;-30
2022/05/21 11:30:37;;;;;;;1.70;0.90;;;;;;99910.14;;;;108026;1271;28520;-30
2022/05/21 11:39:12;;;;;;;4.80;1.40;;;;;;99925.98;;;;107676;1271;28812;-31
2022/05/21 11:42:07;;;;;;;;;;;;;;99933.77;;;;107889;1271;27995;-32
2022/05/21 11:45:08;;;;;;;3.10;1.10;;;;;;99921.17;;;;108036;1271;27695;-33
2022/05/21 11:47:49;;;;;;;4.20;1.10;;;;;;99925.88;;;;108046;1271;27712;-32
2022/05/21 11:50:22;;;;;;;2.40;1.10;;;;;;99932.88;;;;107993;1271;27765;-32
2022/05/21 11:53:04;;;;;;;3.00;1.20;;;;;;99925.55;;;;107981;1271;28665;-32
2022/05/21 11:56:01;;;;;;;4.10;1.20;;;;;;99931.92;;;;107927;1271;27825;-32
2022/05/21 11:58:50;;;;;;;2.70;1.00;;;;;;99938.05;;;;108030;1271;28563;-31
2022/05/21 12:01:36;;;;;;;3.10;1.00;;;;;;99931.59;;;;108005;1271;28713;-32
2022/05/21 12:04:03;;;;;;;2.80;0.90;;;;;;99943.63;;;;108029;1270;26552;-29
2022/05/21 12:06:39;;;;;;;2.80;0.90;;;;;;99935.79;;;;107795;1271;30942;-30
2022/05/21 12:09:26;;;;;;;3.20;0.80;;;;;;99939.08;;;;107995;1271;28652;-31
2022/05/21 12:12:17;;;;;;;2.80;1.00;;;;;;99951.39;;;;107992;1271;30577;-32
2022/05/21 12:15:18;;;;;;;3.70;1.10;;;;;;99957.29;;;;107871;1271;26516;-31
2022/05/21 12:17:51;;;;;;;2.60;1.00;;;;;;99954.30;;;;107886;1271;28622;-31
2022/05/21 12:20:47;;;;;;;4.30;1.00;;;;;;99955.26;;;;107995;1271;28649;-31
2022/05/21 12:23:30;;;;;;;3.10;1.00;;;;;;99956.06;;;;107976;1271;28791;-31
2022/05/21 12:26:02;;;;;;;2.50;0.90;;;;;;99957.16;;;;107880;1270;28734;-31
2022/05/21 12:28:51;;;;;;;2.10;0.80;;;;;;99968.44;;;;108012;1270;27311;-30
2022/05/21 12:31:24;;;;;;;3.10;1.00;;;;;;99974.10;;;;107953;1271;28729;-28
2022/05/21 12:34:12;;;;;;;2.70;1.00;;;;;;99973.04;;;;108015;1271;26048;-29
2022/05/21 12:36:50;;;;;;;1.30;0.70;;;;;;99979.59;;;;107884;1271;28808;-29
2022/05/21 12:39:33;;;;;;;1.80;0.80;;;;;;99972.45;;;;107991;1271;28487;-29
2022/05/21 12:42:24;;;;;;;3.20;0.90;;;;;;99976.11;;;;108008;1271;30468;-29
2022/05/21 12:44:51;;;;;;;2.30;0.90;;;;;;99994.02;;;;108012;1271;28816;-29
2022/05/21 12:47:46;;;;;;;4.00;0.80;;;;;;99989.23;;;;107980;1271;30917;-29
2022/05/21 12:50:21;;;;;;;2.40;0.70;;;;;;99987.79;;;;107973;1270;28826;-29
2022/05/21 12:52:54;;;;;;;3.10;0.90;;;;;;99985.40;;;;107957;1271;28584;-32
2022/05/21 12:55:31;;;;;;;3.10;1.30;;;;;;99988.88;;;;107975;1271;28504;-32
2022/05/21 12:58:10;;;;;;;1.70;0.80;;;;;;99991.45;;;;108001;1270;28725;-32
2022/05/21 13:00:38;;;;;;;2.40;0.80;;;;;;99997.08;;;;107977;1271;26062;-32
2022/05/21 13:03:08;;;;;;;2.60;0.80;;;;;;100000.91;;;;107853;1271;29249;-32
2022/05/21 13:05:49;;;;;;;2.30;1.00;;;;;;99995.48;;;;107822;1271;28699;-32
2022/05/21 13:08:16;;;;;;;1.80;0.90;;;;;;100003.08;;;;108005;1271;27373;-30
2022/05/21 13:11:00;;;;;;;2.20;0.90;;;;;;100000.44;;;;107850;1271;27715;-30
2022/05/21 13:13:29;;;;;;;1.70;0.80;;;;;;100004.04;;;;107982;1271;26047;-30
2022/05/21 13:16:01;;;;;;;3.30;0.80;;;;;;99993.34;;;;108009;1271;28240;-30
2022/05/21 13:19:22;;;;;;;2.70;0.90;;;;;;99995.93;;;;108006;1271;28624;-30
2022/05/21 13:22:37;;;;;;;2.50;0.90;;;;;;99990.25;;;;107996;1271;27393;-30
2022/05/21 13:25:09;;;;;;;2.80;1.10;;;;;;99983.02;;;;107829;1271;30784;-29
2022/05/21 13:27:52;;;;;;;1.90;0.70;;;;;;99989.34;;;;107765;1271;28687;-29
2022/05/21 13:30:35;;;;;;;3.40;0.80;;;;;;100001.15;;;;108018;1271;28664;-29
2022/05/21 13:33:11;;;;;;;2.90;0.90;;;;;;100008.86;;;;108001;1271;30532;-29
2022/05/21 13:35:40;;;;;;;3.50;1.20;;;;;;99996.86;;;;107842;1271;28691;-31
2022/05/21 13:38:12;;;;;;;3.00;1.10;;;;;;99998.94;;;;107834;1271;27493;-30
2022/05/21 13:40:53;;;;;;;3.30;1.10;;;;;;100000.11;;;;107788;1271;27815;-28
2022/05/21 13:43:36;;;;;;;5.10;1.10;;;;;;99995.36;;;;107810;1271;28750;-31
2022/05/21 13:46:03;;;;;;;3.50;0.90;;;;;;99998.77;;;;107897;1271;28746;-29
2022/05/21 13:48:45;;;;;;;2.60;1.10;;;;;;99997.95;;;;107765;1271;28617;-28
2022/05/21 13:51:17;;;;;;;3.50;1.00;;;;;;100004.83;;;;107744;1271;27367;-29
2022/05/21 13:56:40;;;;;;;4.60;1.10;;;;;;100010.66;;;;107837;1271;28668;-29
2022/05/21 13:59:21;;;;;;;3.90;0.80;;;;;;100013.38;;;;107834;1271;27044;-29
2022/05/21 14:01:51;;;;;;;2.80;0.80;;;;;;100011.64;;;;107885;1271;28737;-30
2022/05/21 14:04:39;;;;;;;1.90;0.90;;;;;;100012.81;;;;107816;1271;28684;-30